Time;durP1;ratioP1;P1;durP2;ratioP2;P2;SDS_P1;SDS_P2;PMS_P1;PMS_P2;Temp;Humidity;BMP_temperature;BMP_pressure;BME280_temperature;BME280_humidity;BME280_pressure;Samples;Min_cycle;Max_cycle;Signal;HPM_P1;HPM_P2
2021/07/05 00:00:14;;;;;;;11.55;10.48;;;;;;;18.04;69.42;99983.41;4919735;28;125261;-64
2021/07/05 00:02:41;;;;;;;11.00;10.10;;;;;;;18.11;69.29;99971.97;4915995;28;113643;-64
2021/07/05 00:05:08;;;;;;;11.45;10.35;;;;;;;18.20;69.17;99974.66;4901255;28;98752;-68
2021/07/05 00:07:34;;;;;;;10.95;9.85;;;;;;;18.25;69.14;99966.28;4914358;28;99285;-68
2021/07/05 00:10:00;;;;;;;10.80;9.80;;;;;;;18.40;68.43;99971.16;4900137;28;105781;-64
2021/07/05 00:12:27;;;;;;;11.13;10.13;;;;;;;18.40;68.36;99968.44;4901095;28;97773;-64
2021/07/05 00:14:53;;;;;;;11.13;10.13;;;;;;;18.34;68.14;99970.53;4900416;28;122135;-64
2021/07/05 00:17:19;;;;;;;11.13;10.13;;;;;;;18.12;69.25;99973.59;4900736;28;126814;-69
2021/07/05 00:19:45;;;;;;;11.98;10.90;;;;;;;17.90;69.84;99978.16;4899631;28;126131;-64
2021/07/05 00:22:12;;;;;;;11.60;10.60;;;;;;;18.06;68.98;99980.34;4899665;28;122656;-64
2021/07/05 00:24:38;;;;;;;11.25;10.23;;;;;;;17.97;69.49;99976.88;4899050;28;127090;-64
2021/07/05 00:27:04;;;;;;;11.98;10.55;;;;;;;17.95;68.95;99979.91;4897473;28;126223;-64
2021/07/05 00:29:30;;;;;;;12.25;10.95;;;;;;;17.90;69.32;99975.44;4899795;28;124572;-68
2021/07/05 00:31:56;;;;;;;11.18;10.23;;;;;;;17.95;69.16;99977.19;4919691;28;98079;-64
2021/07/05 00:34:22;;;;;;;11.38;10.20;;;;;;;18.03;68.98;99979.06;4911676;28;99319;-68
2021/07/05 00:36:48;;;;;;;10.57;9.65;;;;;;;18.04;68.65;99972.50;4903216;28;128205;-64
2021/07/05 00:39:14;;;;;;;10.85;9.85;;;;;;;18.08;68.85;99970.72;4918757;28;127721;-64
2021/07/05 00:41:40;;;;;;;10.63;9.63;;;;;;;18.07;68.52;99979.22;4920057;28;98066;-68
2021/07/05 00:44:06;;;;;;;10.75;9.85;;;;;;;18.05;68.80;99973.28;4919461;28;99011;-64
2021/07/05 00:46:32;;;;;;;11.82;10.73;;;;;;;17.82;69.91;99975.50;4919436;28;115124;-68
2021/07/05 00:48:58;;;;;;;10.93;10.02;;;;;;;17.84;70.11;99975.94;4918526;28;127659;-68
2021/07/05 00:51:24;;;;;;;11.40;10.35;;;;;;;17.91;69.81;99979.75;4918754;28;123998;-64
2021/07/05 00:53:51;;;;;;;11.02;10.02;;;;;;;17.64;70.54;99977.44;4916961;28;99234;-64
2021/07/05 00:56:17;;;;;;;10.98;10.00;;;;;;;17.81;70.14;99973.91;4875798;28;98066;-68
2021/07/05 00:58:43;;;;;;;10.68;9.68;;;;;;;17.87;69.88;99970.63;4919729;28;98367;-64
2021/07/05 01:01:10;;;;;;;11.18;9.77;;;;;;;17.88;69.64;99972.25;4903618;28;97623;-68
2021/07/05 01:03:36;;;;;;;11.00;9.90;;;;;;;17.93;69.80;99967.75;4898392;28;128465;-64
2021/07/05 01:06:02;;;;;;;10.77;9.77;;;;;;;18.00;69.18;99957.09;4899697;28;98630;-64
2021/07/05 01:08:28;;;;;;;11.18;9.95;;;;;;;18.06;69.24;99970.22;4882899;28;125480;-64
2021/07/05 01:10:54;;;;;;;10.85;9.95;;;;;;;18.00;69.03;99968.00;4883456;28;122830;-68
2021/07/05 01:13:20;;;;;;;10.57;9.68;;;;;;;18.10;69.24;99965.72;4900201;28;127868;-68
2021/07/05 01:15:46;;;;;;;10.35;9.48;;;;;;;17.96;69.83;99962.44;4916227;28;127361;-64
2021/07/05 01:18:12;;;;;;;11.35;10.15;;;;;;;18.03;69.84;99973.59;4910442;28;127556;-64
2021/07/05 01:20:39;;;;;;;10.73;9.82;;;;;;;18.06;69.30;99972.97;4899392;28;98043;-64
2021/07/05 01:23:10;;;;;;;10.65;9.75;;;;;;;18.00;69.42;99971.56;4901300;28;116953;-68
2021/07/05 01:25:37;;;;;;;11.35;10.35;;;;;;;17.74;70.27;99984.47;4903336;28;97907;-64
2021/07/05 01:28:04;;;;;;;11.25;10.25;;;;;;;18.07;69.44;99977.28;4909591;28;103279;-68
2021/07/05 01:30:30;;;;;;;10.80;9.82;;;;;;;18.09;69.18;99983.22;4920779;28;97900;-68
2021/07/05 01:33:01;;;;;;;10.65;9.57;;;;;;;17.91;70.15;99979.75;4922434;28;99198;-68
2021/07/05 01:35:27;;;;;;;11.40;10.40;;;;;;;18.14;69.19;99980.28;4923352;28;98791;-68
2021/07/05 01:37:54;;;;;;;10.90;9.82;;;;;;;18.22;68.80;99980.56;4916801;28;98655;-68
2021/07/05 01:40:20;;;;;;;11.38;10.35;;;;;;;18.25;68.65;99985.38;4903201;28;97997;-64
2021/07/05 01:42:53;;;;;;;10.80;9.70;;;;;;;18.28;68.70;99988.25;4902686;28;115852;-64
2021/07/05 01:45:25;;;;;;;10.27;9.35;;;;;;;18.20;69.28;99982.84;4903046;28;98167;-64
2021/07/05 01:47:51;;;;;;;11.50;10.53;;;;;;;18.13;69.81;99986.09;4903218;28;98220;-64
2021/07/05 01:50:17;;;;;;;11.60;10.55;;;;;;;18.03;70.34;99986.44;4883430;28;122970;-68
2021/07/05 01:52:43;;;;;;;11.52;10.45;;;;;;;17.91;69.96;99978.97;4900697;28;98752;-64
2021/07/05 01:55:10;;;;;;;11.18;10.07;;;;;;;18.07;69.90;99977.28;4903113;28;128712;-68
2021/07/05 01:57:38;;;;;;;10.98;9.98;;;;;;;17.87;70.90;99978.81;4922252;28;98231;-65
2021/07/05 02:00:15;;;;;;;11.27;10.32;;;;;;;18.13;70.10;99977.91;4921432;28;98508;-64
2021/07/05 02:02:41;;;;;;;11.93;10.82;;;;;;;18.20;70.18;99978.19;4921506;28;99380;-64
2021/07/05 02:05:15;;;;;;;11.90;10.90;;;;;;;18.27;69.89;99974.91;4922051;28;114713;-64
2021/07/05 02:07:42;;;;;;;11.45;10.45;;;;;;;18.03;70.52;99981.78;4922203;28;98023;-64
2021/07/05 02:10:10;;;;;;;14.95;10.65;;;;;;;18.03;71.30;99984.50;4921703;28;111004;-64
2021/07/05 02:12:37;;;;;;;11.38;10.38;;;;;;;17.96;71.58;99986.16;4921639;28;98812;-68
2021/07/05 02:15:15;;;;;;;11.57;10.57;;;;;;;18.03;71.50;99979.06;4920569;28;99724;-68
2021/07/05 02:17:41;;;;;;;12.43;11.32;;;;;;;18.07;71.37;99977.28;4920933;28;128411;-68
2021/07/05 02:20:15;;;;;;;14.18;11.13;;;;;;;17.94;72.46;99981.03;4922599;28;97965;-68
2021/07/05 02:22:42;;;;;;;12.20;11.07;;;;;;;18.02;72.20;99990.31;4921933;28;98604;-68
2021/07/05 02:25:10;;;;;;;12.30;11.23;;;;;;;18.03;72.08;99986.44;4920550;28;98244;-64
2021/07/05 02:27:37;;;;;;;12.48;11.27;;;;;;;18.07;71.76;99987.38;4901721;28;115479;-64
2021/07/05 02:30:06;;;;;;;12.43;11.32;;;;;;;18.05;71.91;99990.47;4905979;28;109431;-69
2021/07/05 02:32:32;;;;;;;12.30;11.13;;;;;;;18.10;71.85;99992.97;4919858;28;106273;-64
2021/07/05 02:34:58;;;;;;;11.63;10.48;;;;;;;18.31;71.71;99992.22;4918466;28;126443;-64
2021/07/05 02:37:24;;;;;;;11.60;10.50;;;;;;;18.34;71.68;99986.13;4920773;28;127595;-64
2021/07/05 02:39:51;;;;;;;11.85;10.68;;;;;;;18.33;71.95;99993.50;4920804;28;99369;-68
2021/07/05 02:42:17;;;;;;;11.05;9.95;;;;;;;18.40;71.93;100001.19;4918659;28;128319;-68
2021/07/05 02:44:43;;;;;;;10.70;9.80;;;;;;;18.47;71.89;100001.47;4883213;28;126268;-69
2021/07/05 02:47:09;;;;;;;11.77;10.57;;;;;;;18.41;72.35;100002.75;4900707;28;126491;-68
2021/07/05 02:49:35;;;;;;;10.93;9.93;;;;;;;18.54;72.14;100007.16;4899306;28;122921;-64
2021/07/05 02:52:01;;;;;;;11.73;10.60;;;;;;;18.34;72.89;100007.94;4901957;28;108332;-68
2021/07/05 02:54:27;;;;;;;11.10;10.07;;;;;;;18.49;73.02;100017.47;4904135;28;98379;-69
2021/07/05 02:56:53;;;;;;;11.18;10.07;;;;;;;18.50;72.89;100021.81;4917693;28;97810;-64
2021/07/05 02:59:19;;;;;;;9.88;8.95;;;;;;;18.57;72.92;100028.34;4920754;28;108665;-65
2021/07/05 03:01:46;;;;;;;10.38;9.27;;;;;;;18.62;72.91;100041.00;4904853;28;128016;-69
2021/07/05 03:04:12;;;;;;;9.80;8.90;;;;;;;18.64;72.89;100039.53;4919570;28;98531;-65
2021/07/05 03:06:38;;;;;;;9.70;8.80;;;;;;;18.63;73.13;100043.41;4920584;28;127705;-64
2021/07/05 03:09:04;;;;;;;9.80;8.90;;;;;;;18.71;72.93;100030.06;4921273;28;97998;-65
2021/07/05 03:11:30;;;;;;;9.57;8.60;;;;;;;18.71;73.03;100039.06;4918906;28;126652;-69
2021/07/05 03:13:56;;;;;;;9.23;8.32;;;;;;;18.64;73.02;100036.00;4919582;28;126663;-65
2021/07/05 03:16:22;;;;;;;9.05;8.15;;;;;;;18.55;73.30;100038.81;4918742;28;114855;-69
2021/07/05 03:18:48;;;;;;;9.65;7.90;;;;;;;18.60;73.57;100041.34;4917640;28;123503;-69
2021/07/05 03:21:14;;;;;;;9.02;8.13;;;;;;;18.73;73.00;100039.50;4914188;28;127934;-69
2021/07/05 03:23:40;;;;;;;8.65;7.85;;;;;;;18.74;73.33;100037.56;4866902;28;113566;-64
2021/07/05 03:26:06;;;;;;;8.88;7.97;;;;;;;18.80;72.59;100033.53;4899039;28;127077;-65
2021/07/05 03:28:32;;;;;;;8.88;7.93;;;;;;;18.75;72.80;100045.44;4899337;28;104941;-69
2021/07/05 03:30:58;;;;;;;9.02;7.25;;;;;;;18.81;72.68;100030.44;4900704;28;127070;-64
2021/07/05 03:33:24;;;;;;;7.97;7.18;;;;;;;18.77;72.97;100036.91;4906886;28;117736;-69
2021/07/05 03:35:51;;;;;;;8.48;6.97;;;;;;;18.85;72.49;100033.31;4920806;28;98828;-69
2021/07/05 03:38:18;;;;;;;8.20;7.25;;;;;;;18.88;72.56;100044.38;4919657;28;98418;-64
2021/07/05 03:40:44;;;;;;;8.20;7.25;;;;;;;18.85;72.69;100044.22;4919747;28;98893;-69
2021/07/05 03:43:10;;;;;;;11.27;7.63;;;;;;;18.90;72.73;100052.22;4921201;28;98418;-69
2021/07/05 03:45:37;;;;;;;7.93;7.03;;;;;;;18.92;72.70;100049.16;4918164;28;103166;-65
2021/07/05 03:48:07;;;;;;;8.32;7.30;;;;;;;18.80;72.90;100050.69;4901345;28;97842;-65
2021/07/05 03:50:33;;;;;;;8.13;6.85;;;;;;;18.78;72.67;100055.69;4917056;28;97965;-69
2021/07/05 03:52:59;;;;;;;9.02;6.93;;;;;;;18.79;72.59;100056.50;4920308;28;98576;-69
2021/07/05 03:55:26;;;;;;;7.57;6.85;;;;;;;18.78;72.79;100060.34;4920398;28;98069;-69
2021/07/05 03:57:52;;;;;;;7.80;7.03;;;;;;;18.72;72.95;100059.75;4905700;28;97808;-69
2021/07/05 04:00:26;;;;;;;7.72;6.93;;;;;;;18.82;72.87;100056.63;4917835;28;124791;-68
2021/07/05 04:02:52;;;;;;;7.57;6.57;;;;;;;18.95;72.53;100056.72;4919287;28;119419;-69
2021/07/05 04:05:19;;;;;;;8.65;6.30;;;;;;;19.01;72.19;100058.09;4919108;28;126334;-69
2021/07/05 04:07:45;;;;;;;7.65;6.45;;;;;;;18.86;72.64;100057.56;4919636;28;97940;-64
2021/07/05 04:10:12;;;;;;;7.53;6.40;;;;;;;18.95;72.07;100064.91;4920111;28;98633;-64
2021/07/05 04:12:38;;;;;;;7.18;6.47;;;;;;;19.04;71.79;100066.41;4920231;28;98615;-69
2021/07/05 04:15:06;;;;;;;8.73;6.10;;;;;;;19.03;71.98;100070.28;4919815;28;98025;-64
2021/07/05 04:17:32;;;;;;;6.53;5.65;;;;;;;19.02;71.52;100071.44;4911053;28;97740;-69
2021/07/05 04:19:58;;;;;;;7.25;5.65;;;;;;;19.18;71.04;100071.63;4899982;28;128493;-69
2021/07/05 04:22:24;;;;;;;6.43;5.60;;;;;;;19.22;71.03;100069.03;4901517;28;98431;-69
2021/07/05 04:24:50;;;;;;;6.45;5.85;;;;;;;19.31;70.75;100065.06;4901264;28;97932;-69
2021/07/05 04:27:16;;;;;;;7.50;6.20;;;;;;;19.18;70.97;100066.16;4900633;28;107857;-69
2021/07/05 04:29:43;;;;;;;6.35;5.82;;;;;;;19.26;70.31;100075.41;4902296;28;98611;-64
2021/07/05 04:32:09;;;;;;;6.40;5.75;;;;;;;19.15;70.38;100069.56;4920048;28;98645;-64
2021/07/05 04:34:35;;;;;;;6.53;5.20;;;;;;;19.18;70.37;100076.25;4917224;28;127702;-64
2021/07/05 04:37:02;;;;;;;5.97;5.20;;;;;;;19.10;70.05;100065.09;4897577;28;119383;-64
2021/07/05 04:39:28;;;;;;;5.30;4.80;;;;;;;19.30;69.90;100066.22;4910850;28;107988;-69
2021/07/05 04:41:54;;;;;;;6.22;5.00;;;;;;;19.29;69.71;100063.78;4916381;28;128084;-64
2021/07/05 04:44:20;;;;;;;5.50;4.95;;;;;;;19.21;69.89;100064.66;4916250;28;98881;-69
2021/07/05 04:46:49;;;;;;;5.70;5.10;;;;;;;19.38;68.79;100065.31;4916924;28;97787;-69
2021/07/05 04:49:16;;;;;;;6.43;5.03;;;;;;;19.39;68.91;100066.13;4916725;28;98961;-64
2021/07/05 04:51:42;;;;;;;5.20;4.53;;;;;;;19.40;68.66;100058.72;4916547;28;98316;-68
2021/07/05 04:54:08;;;;;;;6.18;4.40;;;;;;;19.59;68.12;100064.47;4915843;28;98066;-64
2021/07/05 04:56:35;;;;;;;6.43;4.38;;;;;;;19.75;67.10;100061.94;4916013;28;119576;-69
2021/07/05 04:59:01;;;;;;;5.18;4.50;;;;;;;19.49;67.53;100070.34;4915606;28;99413;-64
2021/07/05 05:01:27;;;;;;;4.63;4.18;;;;;;;19.66;67.23;100067.50;4915032;28;99512;-64
2021/07/05 05:03:53;;;;;;;3.80;3.50;;;;;;;19.72;67.06;100074.34;4913523;28;126759;-65
2021/07/05 05:06:19;;;;;;;5.35;4.13;;;;;;;19.66;66.94;100083.91;4916362;28;123264;-68
2021/07/05 05:08:45;;;;;;;4.15;3.70;;;;;;;19.70;67.08;100079.34;4916746;28;125230;-68
2021/07/05 05:11:12;;;;;;;4.72;4.18;;;;;;;19.72;66.84;100077.06;4917481;28;128205;-64
2021/07/05 05:13:38;;;;;;;5.10;3.85;;;;;;;20.00;66.27;100074.53;4905724;28;128970;-68
2021/07/05 05:16:04;;;;;;;4.63;3.80;;;;;;;20.06;66.11;100075.88;4899720;28;107773;-69
2021/07/05 05:18:30;;;;;;;4.85;4.15;;;;;;;20.02;66.06;100076.91;4882157;28;98147;-69
2021/07/05 05:20:56;;;;;;;3.88;3.58;;;;;;;20.16;65.75;100079.31;4898854;28;126695;-69
2021/07/05 05:23:23;;;;;;;6.13;4.30;;;;;;;20.05;65.52;100089.91;4900066;28;97734;-64
2021/07/05 05:25:49;;;;;;;5.35;4.30;;;;;;;19.87;66.58;100083.84;4899060;28;120815;-64
2021/07/05 05:28:15;;;;;;;5.40;4.28;;;;;;;19.81;66.89;100083.25;4900522;28;105064;-68
2021/07/05 05:30:41;;;;;;;4.50;4.10;;;;;;;19.98;66.33;100084.19;4897362;28;126608;-68
2021/07/05 05:33:07;;;;;;;3.90;3.53;;;;;;;20.14;65.67;100082.41;4899906;28;98118;-68
2021/07/05 05:35:33;;;;;;;4.40;3.90;;;;;;;20.12;65.81;100092.88;4900473;28;97851;-69
2021/07/05 05:37:59;;;;;;;5.05;4.43;;;;;;;20.11;66.04;100089.34;4909687;28;120707;-68
2021/07/05 05:40:26;;;;;;;7.47;4.28;;;;;;;20.31;65.09;100098.59;4915107;28;98725;-69
2021/07/05 05:42:53;;;;;;;4.28;3.80;;;;;;;20.41;64.91;100102.03;4900315;28;97926;-69
2021/07/05 05:45:19;;;;;;;3.80;3.47;;;;;;;20.57;64.88;100103.75;4898529;28;97795;-64
2021/07/05 05:47:45;;;;;;;5.00;3.70;;;;;;;20.54;64.40;100101.69;4901500;28;99055;-68
2021/07/05 05:50:13;;;;;;;4.35;3.50;;;;;;;20.69;63.67;100105.69;4917737;28;98872;-64
2021/07/05 05:52:39;;;;;;;4.50;3.67;;;;;;;20.84;63.53;100107.72;4918554;28;97970;-68
2021/07/05 05:55:06;;;;;;;4.10;3.70;;;;;;;20.73;64.23;100108.53;4900664;28;102895;-68
2021/07/05 05:57:32;;;;;;;4.30;3.60;;;;;;;20.75;64.31;100118.03;4917571;28;98323;-64
2021/07/05 06:00:01;;;;;;;4.13;3.80;;;;;;;20.93;63.31;100107.59;4918900;28;98531;-69
2021/07/05 06:02:28;;;;;;;3.78;3.38;;;;;;;21.02;62.21;100115.69;4918000;28;99431;-69
2021/07/05 06:04:54;;;;;;;4.45;3.55;;;;;;;20.94;63.11;100114.66;4918921;28;97791;-69
2021/07/05 06:07:20;;;;;;;3.67;3.00;;;;;;;21.29;62.62;100114.91;4918563;28;113169;-64
2021/07/05 06:09:46;;;;;;;4.18;3.28;;;;;;;21.31;62.65;100115.38;4904589;28;115130;-64
2021/07/05 06:12:12;;;;;;;3.92;3.53;;;;;;;21.05;62.97;100113.03;4901645;28;127565;-69
2021/07/05 06:14:38;;;;;;;3.70;3.20;;;;;;;21.36;61.98;100116.31;4885560;28;98139;-68
2021/07/05 06:17:04;;;;;;;3.90;3.50;;;;;;;21.57;61.64;100114.16;4899496;28;126734;-64
2021/07/05 06:19:30;;;;;;;3.25;2.95;;;;;;;21.40;62.40;100111.72;4902039;28;114191;-69
2021/07/05 06:21:56;;;;;;;3.95;3.00;;;;;;;21.04;62.60;100119.69;4902123;28;111979;-65
2021/07/05 06:24:22;;;;;;;3.35;2.78;;;;;;;21.03;62.32;100122.78;4903103;28;110311;-69
2021/07/05 06:26:48;;;;;;;9.70;7.47;;;;;;;21.47;62.31;100120.94;4901593;28;126800;-64
2021/07/05 06:29:15;;;;;;;5.45;3.15;;;;;;;21.34;62.15;100122.16;4883370;28;126171;-69
2021/07/05 06:31:41;;;;;;;4.32;2.95;;;;;;;21.12;62.74;100114.41;4902935;28;128223;-69
2021/07/05 06:34:07;;;;;;;3.55;3.25;;;;;;;21.06;62.87;100119.31;4902302;28;97916;-69
2021/07/05 06:36:35;;;;;;;3.67;3.33;;;;;;;20.79;64.66;100118.94;4909008;28;116109;-69
2021/07/05 06:39:01;;;;;;;3.67;2.75;;;;;;;20.56;65.83;100123.28;4903590;28;98586;-69
2021/07/05 06:41:27;;;;;;;7.07;3.72;;;;;;;20.81;66.97;100130.31;4899258;28;127264;-64
2021/07/05 06:43:53;;;;;;;9.32;4.45;;;;;;;20.96;68.10;100133.50;4901955;28;122230;-64
2021/07/05 06:46:21;;;;;;;6.20;3.40;;;;;;;20.79;69.39;100142.78;4899525;28;130990;-68
2021/07/05 06:48:48;;;;;;;4.75;3.50;;;;;;;20.63;67.54;100141.84;4918434;28;98650;-69
2021/07/05 06:51:14;;;;;;;3.42;2.58;;;;;;;20.87;69.38;100135.56;4902207;28;98589;-68
2021/07/05 06:53:40;;;;;;;4.45;2.70;;;;;;;20.96;70.23;100134.31;4901349;28;121889;-68
2021/07/05 06:56:06;;;;;;;3.88;2.60;;;;;;;20.63;69.33;100142.66;4916978;28;126930;-68
2021/07/05 06:58:32;;;;;;;3.85;2.63;;;;;;;20.65;68.09;100154.06;4920493;28;128633;-68
2021/07/05 07:01:02;;;;;;;3.53;2.50;;;;;;;20.34;68.76;100154.59;4918620;28;97801;-64
2021/07/05 07:03:28;;;;;;;4.95;2.25;;;;;;;20.02;67.31;100146.09;4903174;28;97811;-68
2021/07/05 07:05:55;;;;;;;4.78;2.70;;;;;;;20.25;70.37;100156.63;4905049;28;126798;-68
2021/07/05 07:08:22;;;;;;;8.57;7.05;;;;;;;20.15;72.33;100152.38;4902512;28;98675;-68
2021/07/05 07:10:48;;;;;;;20.45;18.63;;;;;;;19.73;71.10;100163.44;4901793;28;98587;-67
2021/07/05 07:13:14;;;;;;;3.55;2.90;;;;;;;19.42;73.41;100154.84;4899011;28;123369;-64
2021/07/05 07:15:44;;;;;;;3.53;3.22;;;;;;;19.87;73.18;100154.94;4919183;28;99084;-64
2021/07/05 07:18:32;;;;;;;4.30;3.33;;;;;;;19.55;74.36;100160.03;4901838;28;99083;-64
2021/07/05 07:20:58;;;;;;;4.70;4.30;;;;;;;19.73;76.87;100159.88;4900568;28;98423;-64
2021/07/05 07:23:24;;;;;;;4.53;4.13;;;;;;;19.77;75.52;100156.16;4909201;28;113988;-67
2021/07/05 07:25:50;;;;;;;4.78;3.70;;;;;;;19.86;75.25;100151.41;4918883;28;128918;-64
2021/07/05 07:28:16;;;;;;;4.13;3.35;;;;;;;19.70;73.62;100157.84;4916803;28;127940;-64
2021/07/05 07:30:42;;;;;;;7.60;6.80;;;;;;;20.01;74.95;100160.13;4910826;28;127179;-67
2021/07/05 07:33:08;;;;;;;5.30;4.80;;;;;;;19.77;73.77;100156.16;4903032;28;122016;-64
2021/07/05 07:35:34;;;;;;;4.00;3.60;;;;;;;19.99;73.91;100156.91;4900956;28;97714;-64
2021/07/05 07:38:01;;;;;;;5.55;5.05;;;;;;;19.87;76.20;100163.13;4901968;28;98381;-67
2021/07/05 07:40:30;;;;;;;4.57;3.70;;;;;;;19.68;75.55;100162.84;4900514;28;98053;-67
2021/07/05 07:42:56;;;;;;;3.70;2.75;;;;;;;19.63;76.54;100160.31;4918795;28;97911;-67
2021/07/05 07:45:22;;;;;;;3.65;2.97;;;;;;;19.75;76.45;100155.69;4882869;28;128464;-67
2021/07/05 07:47:49;;;;;;;3.95;2.75;;;;;;;19.80;76.84;100152.75;4883333;28;101082;-64
2021/07/05 07:50:16;;;;;;;3.88;3.13;;;;;;;19.94;73.77;100162.59;4883653;28;97972;-64
2021/07/05 07:52:42;;;;;;;2.97;2.50;;;;;;;19.67;75.98;100164.78;4879138;28;97855;-64
2021/07/05 07:55:10;;;;;;;5.45;3.10;;;;;;;19.79;74.85;100158.56;4902197;28;100222;-67
2021/07/05 07:57:37;;;;;;;4.10;3.22;;;;;;;19.36;75.69;100163.22;4919557;28;115481;-64
2021/07/05 08:00:11;;;;;;;3.20;2.90;;;;;;;19.60;76.53;100162.53;4918449;28;98054;-67
2021/07/05 08:02:38;;;;;;;3.05;2.45;;;;;;;19.39;77.06;100164.50;4919468;28;97695;-67
2021/07/05 08:05:04;;;;;;;3.42;3.10;;;;;;;19.35;77.18;100169.03;4901321;28;98674;-67
2021/07/05 08:07:30;;;;;;;3.53;2.60;;;;;;;19.41;76.87;100172.34;4900101;28;108009;-67
2021/07/05 08:09:57;;;;;;;4.93;2.80;;;;;;;19.06;76.19;100175.31;4918986;28;99434;-67
2021/07/05 08:12:23;;;;;;;3.08;2.47;;;;;;;18.95;77.58;100171.41;4919780;28;97993;-67
2021/07/05 08:14:49;;;;;;;3.53;3.00;;;;;;;19.34;77.74;100172.91;4920213;28;108255;-67
2021/07/05 08:17:15;;;;;;;3.35;2.65;;;;;;;19.01;77.77;100180.97;4919643;28;99193;-64
2021/07/05 08:19:41;;;;;;;2.95;2.40;;;;;;;19.13;77.63;100175.59;4901231;28;118369;-64
2021/07/05 08:22:07;;;;;;;2.95;2.55;;;;;;;19.20;77.96;100181.34;4911604;28;97875;-64
2021/07/05 08:24:33;;;;;;;4.30;2.72;;;;;;;19.24;75.15;100179.53;4912114;28;112362;-66
2021/07/05 08:26:59;;;;;;;2.88;2.40;;;;;;;18.78;77.88;100188.66;4900767;28;127792;-67
2021/07/05 08:29:26;;;;;;;2.80;2.20;;;;;;;18.68;75.23;100186.28;4900251;28;98621;-66
2021/07/05 08:31:52;;;;;;;3.42;2.50;;;;;;;18.95;76.88;100174.94;4909477;28;121239;-67
2021/07/05 08:34:18;;;;;;;2.40;1.98;;;;;;;19.11;76.86;100175.16;4909133;28;98247;-66
2021/07/05 08:36:44;;;;;;;2.78;2.20;;;;;;;19.40;76.81;100182.50;4920438;28;98474;-64
2021/07/05 08:39:10;;;;;;;3.03;2.00;;;;;;;19.55;75.87;100192.81;4917763;28;97828;-67
2021/07/05 08:41:37;;;;;;;2.45;1.75;;;;;;;19.35;76.73;100190.91;4918468;28;98274;-67
2021/07/05 08:44:03;;;;;;;2.97;2.00;;;;;;;19.61;75.77;100182.50;4907092;28;98576;-67
2021/07/05 08:46:32;;;;;;;2.42;2.10;;;;;;;19.60;73.22;100181.69;4901475;28;105816;-64
2021/07/05 08:48:58;;;;;;;2.45;2.10;;;;;;;19.65;75.36;100190.84;4900328;28;98257;-67
2021/07/05 08:51:24;;;;;;;2.70;1.75;;;;;;;19.56;74.86;100188.94;4901379;28;97778;-64
2021/07/05 08:53:52;;;;;;;2.63;2.13;;;;;;;19.73;75.15;100192.69;4898202;28;105576;-66
2021/07/05 08:56:19;;;;;;;2.63;1.48;;;;;;;19.66;70.97;100184.25;4901121;28;98412;-65
2021/07/05 08:58:46;;;;;;;3.65;1.63;;;;;;;19.78;72.64;100181.56;4899840;28;111919;-64
2021/07/05 09:01:13;;;;;;;2.88;1.73;;;;;;;20.70;70.77;100183.94;4901111;28;97941;-65
2021/07/05 09:03:39;;;;;;;1.70;1.58;;;;;;;20.13;72.18;100189.44;4882526;28;98449;-64
2021/07/05 09:06:23;;;;;;;2.80;1.52;;;;;;;20.43;71.86;100185.38;4898956;28;98632;-64
2021/07/05 09:09:03;;;;;;;1.92;1.23;;;;;;;19.93;69.46;100188.34;4898573;28;97981;-67
2021/07/05 09:12:06;;;;;;;2.15;0.95;;;;;;;20.00;69.59;100194.06;4901536;28;97766;-64
2021/07/05 09:14:33;;;;;;;3.00;1.30;;;;;;;20.41;70.28;100189.63;4905799;28;98057;-65
2021/07/05 09:16:59;;;;;;;2.38;0.95;;;;;;;20.90;67.97;100195.94;4909592;28;117273;-65
2021/07/05 09:19:27;;;;;;;1.10;0.80;;;;;;;21.61;63.95;100186.34;4899077;28;97891;-65
2021/07/05 09:22:04;;;;;;;1.10;0.80;;;;;;;22.84;60.03;100185.66;4919414;28;98097;-65
2021/07/05 09:24:39;;;;;;;1.27;0.57;;;;;;;23.80;57.53;100184.25;4919208;28;98433;-67
2021/07/05 09:27:33;;;;;;;1.48;0.50;;;;;;;23.36;58.24;100196.31;4914740;28;97730;-67
2021/07/05 09:30:10;;;;;;;1.17;0.65;;;;;;;22.10;61.26;100191.63;4899729;28;97904;-67
2021/07/05 09:32:36;;;;;;;1.02;0.55;;;;;;;22.60;60.79;100195.69;4901017;28;97982;-65
2021/07/05 09:35:15;;;;;;;0.93;0.50;;;;;;;21.38;62.17;100186.09;4899423;28;126188;-64
2021/07/05 09:37:53;;;;;;;1.25;0.50;;;;;;;21.39;63.16;100184.94;4900936;28;115699;-67
2021/07/05 09:40:19;;;;;;;1.00;0.40;;;;;;;21.97;61.34;100187.38;4916252;28;97904;-65
2021/07/05 09:42:48;;;;;;;3.72;0.50;;;;;;;22.05;62.71;100183.66;4919101;28;105789;-65
2021/07/05 09:45:28;;;;;;;1.20;0.60;;;;;;;21.94;61.13;100174.34;4921884;28;99244;-67
2021/07/05 09:48:23;;;;;;;1.17;0.52;;;;;;;21.06;60.86;100177.69;4922551;28;98489;-64
2021/07/05 09:51:03;;;;;;;1.80;0.50;;;;;;;21.82;60.42;100175.19;4921705;28;97797;-64
2021/07/05 09:53:35;;;;;;;1.38;0.60;;;;;;;22.68;59.63;100164.50;4921003;28;97940;-67
2021/07/05 09:56:27;;;;;;;0.70;0.55;;;;;;;23.43;56.44;100179.97;4910183;28;98109;-64
2021/07/05 09:58:58;;;;;;;1.55;0.47;;;;;;;24.19;53.49;100180.28;4920350;28;112476;-65
2021/07/05 10:01:48;;;;;;;1.00;0.50;;;;;;;24.72;52.01;100166.66;4922733;28;97940;-67
2021/07/05 10:04:27;;;;;;;1.55;0.70;;;;;;;24.60;52.73;100169.59;4903976;28;98363;-67
2021/07/05 10:06:58;;;;;;;1.15;0.60;;;;;;;25.04;51.37;100160.03;4922141;28;98379;-67
2021/07/05 10:09:35;;;;;;;1.63;0.80;;;;;;;24.00;52.13;100158.28;4917981;28;108174;-67
2021/07/05 10:12:17;;;;;;;0.93;0.60;;;;;;;23.69;52.63;100151.03;4922017;28;97779;-65
2021/07/05 10:14:50;;;;;;;3.00;0.90;;;;;;;24.28;53.26;100151.72;4919681;28;98014;-67
2021/07/05 10:17:16;;;;;;;2.55;0.88;;;;;;;24.07;51.85;100158.44;4921730;28;99156;-65
2021/07/05 10:19:43;;;;;;;2.00;0.90;;;;;;;24.93;50.72;100154.34;4920973;28;126494;-67
2021/07/05 10:22:12;;;;;;;2.97;0.93;;;;;;;25.50;48.75;100155.13;4918817;28;127631;-67
2021/07/05 10:24:39;;;;;;;1.15;0.82;;;;;;;25.61;49.20;100142.25;4921712;28;97758;-67
2021/07/05 10:27:05;;;;;;;1.52;0.93;;;;;;;27.03;44.80;100154.97;4913133;28;103846;-65
2021/07/05 10:29:35;;;;;;;1.77;0.80;;;;;;;27.04;45.51;100142.72;4899613;28;129017;-67
2021/07/05 10:32:01;;;;;;;2.25;1.00;;;;;;;28.17;42.37;100147.13;4901285;28;98514;-65
2021/07/05 10:34:28;;;;;;;1.58;1.00;;;;;;;25.99;46.09;100145.84;4902709;28;97849;-64
2021/07/05 10:36:54;;;;;;;1.98;1.00;;;;;;;25.26;49.75;100150.09;4921614;28;109106;-67
2021/07/05 10:39:20;;;;;;;1.75;0.95;;;;;;;24.90;49.71;100133.03;4902962;28;104910;-67
2021/07/05 10:41:46;;;;;;;2.47;0.95;;;;;;;24.71;49.90;100134.72;4901547;28;113163;-66
2021/07/05 10:44:15;;;;;;;1.20;1.10;;;;;;;25.63;49.75;100133.63;4919660;28;98032;-66
2021/07/05 10:46:51;;;;;;;1.77;0.90;;;;;;;27.48;44.75;100133.50;4919972;28;98488;-65
2021/07/05 10:49:30;;;;;;;1.20;0.90;;;;;;;27.99;42.65;100132.47;4888292;28;97995;-64
2021/07/05 10:51:58;;;;;;;3.45;1.48;;;;;;;28.66;41.58;100122.63;4920244;28;98230;-67
2021/07/05 10:54:53;;;;;;;1.63;0.88;;;;;;;29.40;39.57;100123.59;4913556;28;98194;-65
2021/07/05 10:57:46;;;;;;;1.55;0.95;;;;;;;27.59;44.35;100126.81;4901374;28;111447;-67
2021/07/05 11:00:20;;;;;;;2.20;1.23;;;;;;;27.85;41.91;100116.63;4894110;28;99511;-65
2021/07/05 11:02:50;;;;;;;1.42;1.08;;;;;;;28.81;43.52;100115.84;4920997;28;98040;-67
2021/07/05 11:05:38;;;;;;;2.40;1.13;;;;;;;29.31;42.48;100116.50;4921746;28;98004;-65
2021/07/05 11:08:52;;;;;;;2.38;1.13;;;;;;;28.01;43.02;100119.81;4919241;28;98757;-67
2021/07/05 11:11:31;;;;;;;2.70;1.27;;;;;;;27.79;44.32;100109.91;4919215;28;98322;-67
2021/07/05 11:14:17;;;;;;;1.77;1.30;;;;;;;28.21;42.91;100106.38;4920162;28;97842;-65
2021/07/05 11:17:04;;;;;;;2.75;1.70;;;;;;;28.05;43.40;100098.44;4900175;28;98177;-65
2021/07/05 11:19:46;;;;;;;1.73;1.20;;;;;;;28.07;43.69;100104.41;4906020;28;98075;-65
2021/07/05 11:22:17;;;;;;;1.92;1.30;;;;;;;27.82;44.57;100101.56;4902889;28;98391;-67
2021/07/05 11:24:51;;;;;;;1.50;1.40;;;;;;;27.59;45.22;100096.38;4920359;28;97831;-67